createdAt,value
2022-09-24T00:01:36.317Z,8.02
2022-09-24T00:04:08.017Z,9.65
2022-09-24T00:06:42.800Z,7.22
2022-09-24T00:09:11.893Z,6.55
2022-09-24T00:11:39.928Z,5.97
2022-09-24T00:14:07.645Z,8.88
2022-09-24T00:16:35.003Z,7.55
2022-09-24T00:19:03.760Z,7.57
2022-09-24T00:21:33.996Z,5.63
2022-09-24T00:24:32.474Z,7.18
2022-09-24T00:27:00.787Z,6.30
2022-09-24T00:29:28.464Z,9.32
2022-09-24T00:31:55.614Z,8.10
2022-09-24T00:34:22.603Z,7.55
2022-09-24T00:36:49.449Z,6.82
2022-09-24T00:39:17.126Z,5.63
2022-09-24T00:41:47.107Z,11.02
2022-09-24T00:44:45.025Z,8.40
2022-09-24T00:47:15.217Z,8.27
2022-09-24T00:49:42.733Z,5.70
2022-09-24T00:52:09.999Z,8.57
2022-09-24T00:54:37.411Z,7.75
2022-09-24T00:57:04.796Z,6.88
2022-09-24T00:59:33.450Z,6.72
2022-09-24T01:02:00.526Z,7.93
2022-09-24T01:04:28.682Z,6.82
2022-09-24T01:06:56.791Z,6.90
2022-09-24T01:09:27.533Z,7.70
2022-09-24T01:12:18.940Z,5.80
2022-09-24T01:15:10.304Z,7.18
2022-09-24T01:18:16.775Z,7.85
2022-09-24T01:21:17.560Z,15.70
2022-09-24T01:24:08.170Z,8.98
2022-09-24T01:27:18.080Z,6.53
2022-09-24T01:30:05.200Z,9.02
2022-09-24T01:33:00.885Z,9.68
2022-09-24T01:35:41.909Z,7.88
2022-09-24T01:38:25.246Z,9.10
2022-09-24T01:40:55.420Z,9.10
2022-09-24T01:43:26.943Z,9.00
2022-09-24T01:45:58.796Z,9.52
2022-09-24T01:48:26.909Z,7.32
2022-09-24T01:51:18.951Z,9.80
2022-09-24T01:53:57.405Z,6.28
2022-09-24T01:56:50.506Z,6.90
2022-09-24T01:59:28.498Z,8.70
2022-09-24T02:02:07.740Z,6.30
2022-09-24T02:04:51.536Z,9.90
2022-09-24T02:07:42.561Z,6.35
2022-09-24T02:10:20.262Z,6.63
2022-09-24T02:12:56.637Z,7.13
2022-09-24T02:15:33.971Z,7.25
2022-09-24T02:18:08.606Z,5.50
2022-09-24T02:20:39.204Z,6.30
2022-09-24T02:23:08.276Z,6.80
2022-09-24T02:25:43.125Z,5.22
2022-09-24T02:28:10.209Z,7.07
2022-09-24T02:31:32.227Z,8.70
2022-09-24T02:34:20.590Z,8.35
2022-09-24T02:37:16.913Z,9.00
2022-09-24T02:39:43.936Z,9.48
2022-09-24T02:48:32.146Z,7.07
2022-09-24T02:50:59.021Z,7.90
2022-09-24T02:53:25.943Z,6.32
2022-09-24T02:55:52.811Z,7.53
2022-09-24T02:58:19.632Z,6.00
2022-09-24T03:00:46.545Z,6.63
2022-09-24T03:03:13.430Z,6.80
2022-09-24T03:05:40.374Z,5.97
2022-09-24T03:08:07.510Z,7.40
2022-09-24T03:10:34.945Z,10.38
2022-09-24T03:13:01.846Z,6.53
2022-09-24T03:15:29.754Z,8.95
2022-09-24T03:17:56.723Z,6.28
2022-09-24T03:20:24.350Z,8.55
2022-09-24T03:22:51.961Z,7.10
2022-09-24T03:25:20.043Z,11.07
2022-09-24T03:27:47.179Z,9.55
2022-09-24T03:30:33.217Z,7.35
2022-09-24T03:33:00.385Z,8.63
2022-09-24T03:35:27.225Z,7.72
2022-09-24T03:37:55.188Z,8.02
2022-09-24T03:40:22.622Z,7.30
2022-09-24T03:42:49.481Z,6.82
2022-09-24T03:45:16.872Z,6.53
2022-09-24T03:47:43.978Z,6.53
2022-09-24T03:50:11.626Z,8.13
2022-09-24T03:52:41.583Z,8.82
2022-09-24T03:55:09.134Z,7.88
2022-09-24T03:57:35.985Z,9.15
2022-09-24T04:00:03.444Z,9.45
2022-09-24T04:02:33.255Z,8.02
2022-09-24T04:05:00.353Z,5.68
2022-09-24T04:07:27.168Z,8.13
2022-09-24T04:09:53.975Z,6.88
2022-09-24T04:12:20.842Z,8.43
2022-09-24T04:14:47.631Z,7.25
2022-09-24T04:17:14.956Z,5.68
2022-09-24T04:19:41.820Z,8.73
2022-09-24T04:22:08.815Z,16.52
2022-09-24T04:24:35.632Z,9.38
2022-09-24T04:27:02.682Z,8.60
2022-09-24T04:29:29.733Z,6.93
2022-09-24T04:31:56.938Z,8.07
2022-09-24T04:34:23.822Z,8.05
2022-09-24T04:36:50.657Z,7.43
2022-09-24T04:39:17.565Z,6.93
2022-09-24T04:41:44.365Z,9.55
2022-09-24T04:44:13.374Z,8.75
2022-09-24T04:47:03.349Z,6.78
2022-09-24T04:49:30.272Z,7.95
2022-09-24T04:51:58.122Z,8.18
2022-09-24T04:54:25.594Z,8.05
2022-09-24T04:56:52.449Z,6.88
2022-09-24T04:59:19.278Z,7.07
2022-09-24T05:01:47.267Z,7.28
2022-09-24T05:04:14.256Z,7.80
2022-09-24T05:06:41.510Z,6.78
2022-09-24T05:09:12.392Z,5.75
2022-09-24T05:11:39.642Z,6.97
2022-09-24T05:14:06.927Z,15.60
2022-09-24T05:16:34.072Z,23.95
2022-09-24T05:19:01.963Z,7.38
2022-09-24T05:21:28.842Z,11.10
2022-09-24T05:24:11.100Z,7.45
2022-09-24T05:26:56.334Z,6.35
2022-09-24T05:29:23.233Z,19.33
2022-09-24T05:33:05.671Z,18.42
2022-09-24T05:35:32.484Z,18.80
2022-09-24T05:37:59.315Z,23.45
2022-09-24T05:44:58.455Z,13.82
2022-09-24T05:47:25.326Z,10.18
2022-09-24T05:49:52.782Z,9.50
2022-09-24T05:52:20.007Z,6.47
2022-09-24T05:54:46.831Z,7.38
2022-09-24T05:57:15.641Z,9.05
2022-09-24T05:59:42.615Z,8.40
2022-09-24T06:02:10.665Z,6.05
2022-09-24T06:04:37.467Z,6.95
2022-09-24T06:07:04.315Z,7.28
2022-09-24T06:14:04.572Z,8.07
2022-09-24T06:16:34.865Z,8.55
2022-09-24T06:19:01.914Z,7.78
2022-09-24T06:21:28.912Z,5.78
2022-09-24T06:23:55.785Z,7.03
2022-09-24T06:26:22.752Z,7.88
2022-09-24T06:28:49.614Z,6.88
2022-09-24T06:31:20.534Z,8.82
2022-09-24T06:33:47.420Z,8.52
2022-09-24T06:36:14.705Z,9.18
2022-09-24T06:38:41.821Z,8.88
2022-09-24T06:41:09.586Z,7.72
2022-09-24T06:43:36.646Z,8.32
2022-09-24T06:46:03.856Z,8.00
2022-09-24T06:48:31.482Z,7.60
2022-09-24T07:40:10.107Z,7.72
2022-09-24T07:42:37.253Z,9.65
2022-09-24T07:45:04.470Z,8.05
2022-09-24T07:47:31.613Z,6.07
2022-09-24T07:49:58.402Z,6.32
2022-09-24T07:52:25.231Z,7.43
2022-09-24T07:54:54.200Z,6.50
2022-09-24T07:59:07.838Z,6.75
2022-09-24T08:01:35.118Z,5.95
2022-09-24T08:04:04.388Z,8.23
2022-09-24T08:06:38.288Z,6.32
2022-09-24T08:09:07.021Z,6.93
2022-09-24T08:11:34.127Z,5.68
2022-09-24T08:19:56.801Z,5.57
2022-09-24T08:22:25.008Z,7.25
2022-09-24T08:24:52.962Z,8.10
2022-09-24T08:27:20.521Z,6.97
2022-09-24T08:29:47.432Z,6.78
2022-09-24T08:32:14.647Z,6.85
2022-09-24T08:34:41.760Z,6.30
2022-09-24T08:37:08.772Z,8.65
2022-09-24T08:39:35.693Z,6.32
2022-09-24T08:42:28.385Z,6.15
2022-09-24T08:45:17.404Z,5.28
2022-09-24T08:47:51.891Z,6.95
2022-09-24T08:50:28.941Z,7.88
2022-09-24T08:53:23.606Z,6.95
2022-09-24T08:55:57.005Z,6.30
2022-09-24T08:58:48.731Z,7.35
2022-09-24T09:01:39.474Z,8.23
2022-09-24T09:04:29.468Z,5.10
2022-09-24T09:07:23.637Z,5.75
2022-09-24T09:10:04.812Z,6.22
2022-09-24T09:12:44.025Z,7.68
2022-09-24T09:15:19.158Z,6.32
2022-09-24T09:18:13.069Z,6.18
2022-09-24T09:20:44.216Z,5.65
2022-09-24T09:23:19.882Z,6.45
2022-09-24T09:25:58.073Z,5.22
2022-09-24T09:28:27.604Z,4.63
2022-09-24T09:31:22.364Z,4.32
2022-09-24T09:34:07.198Z,5.23
2022-09-24T09:37:02.382Z,4.55
2022-09-24T09:40:00.132Z,4.80
2022-09-24T09:42:32.337Z,7.20
2022-09-24T09:45:27.735Z,3.72
2022-09-24T09:47:57.680Z,6.88
2022-09-24T09:50:41.233Z,6.82
2022-09-24T09:53:21.174Z,6.72
2022-09-24T09:56:00.183Z,4.05
2022-09-24T09:58:53.221Z,3.28
2022-09-24T10:01:20.425Z,5.32
2022-09-24T10:06:36.266Z,3.50
2022-09-24T10:09:28.017Z,4.75
2022-09-24T10:12:32.339Z,4.20
2022-09-24T10:15:16.903Z,3.40
2022-09-24T10:17:51.313Z,3.20
2022-09-24T10:20:30.046Z,3.42
2022-09-24T10:23:02.726Z,4.03
2022-09-24T10:25:32.016Z,3.80
2022-09-24T10:28:26.942Z,3.53
2022-09-24T10:31:01.166Z,2.50
2022-09-24T10:33:37.067Z,3.17
2022-09-24T10:36:16.998Z,3.47
2022-09-24T10:38:44.762Z,3.97
2022-09-24T10:41:35.164Z,3.40
2022-09-24T10:44:11.390Z,3.47
2022-09-24T10:46:57.973Z,3.15
2022-09-24T10:50:02.351Z,2.92
2022-09-24T10:52:57.755Z,5.90
2022-09-24T10:58:15.927Z,4.10
2022-09-24T11:04:13.489Z,2.50
2022-09-24T11:07:07.967Z,3.60
2022-09-24T11:09:55.191Z,3.72
2022-09-24T11:12:49.621Z,4.68
2022-09-24T11:16:09.863Z,3.13
2022-09-24T11:18:54.136Z,2.92
2022-09-24T11:21:57.703Z,3.10
2022-09-24T11:24:56.045Z,2.90
2022-09-24T11:27:48.670Z,3.58
2022-09-24T11:30:21.765Z,2.92
2022-09-24T11:33:20.763Z,2.80
2022-09-24T11:36:00.353Z,2.75
2022-09-24T11:38:45.909Z,2.83
2022-09-24T11:41:26.891Z,3.15
2022-09-24T11:44:29.358Z,3.22
2022-09-24T11:47:14.093Z,2.80
2022-09-24T11:50:13.650Z,3.95
2022-09-24T11:52:57.448Z,4.32
2022-09-24T11:55:35.935Z,2.72
2022-09-24T11:58:25.448Z,2.15
2022-09-24T12:01:23.651Z,3.42
2022-09-24T12:04:20.070Z,2.35
2022-09-24T12:07:13.180Z,3.63
2022-09-24T12:09:52.969Z,2.25
2022-09-24T12:12:29.326Z,3.03
2022-09-24T12:15:12.484Z,2.80
2022-09-24T12:17:48.269Z,2.92
2022-09-24T12:20:29.818Z,3.83
2022-09-24T12:23:09.373Z,4.63
2022-09-24T12:25:46.978Z,3.97
2022-09-24T12:28:38.957Z,3.60
2022-09-24T12:32:01.134Z,2.72
2022-09-24T12:34:50.923Z,2.97
2022-09-24T12:37:28.613Z,3.80
2022-09-24T12:40:16.112Z,2.70
2022-09-24T12:42:52.044Z,4.07
2022-09-24T12:45:24.741Z,3.90
2022-09-24T12:48:00.051Z,3.47
2022-09-24T12:50:34.311Z,4.53
2022-09-24T12:53:01.368Z,3.17
2022-09-24T12:55:34.864Z,2.80
2022-09-24T12:58:06.016Z,2.45
2022-09-24T13:00:33.526Z,2.90
2022-09-24T13:03:02.981Z,4.45
2022-09-24T13:05:46.376Z,3.80
2022-09-24T13:08:20.063Z,5.22
2022-09-24T13:11:05.702Z,3.80
2022-09-24T13:13:40.925Z,4.13
2022-09-24T13:16:22.806Z,3.13
2022-09-24T13:19:02.767Z,3.10
2022-09-24T13:21:31.124Z,2.88
2022-09-24T13:23:58.442Z,4.35
2022-09-24T13:26:25.205Z,2.13
2022-09-24T13:29:01.479Z,2.70
2022-09-24T13:31:28.360Z,2.53
2022-09-24T13:34:09.912Z,2.75
2022-09-24T13:37:00.743Z,5.28
2022-09-24T13:39:45.995Z,4.00
2022-09-24T13:45:20.960Z,3.88
2022-09-24T13:48:04.918Z,2.72
2022-09-24T13:50:49.393Z,2.05
2022-09-24T13:53:29.266Z,2.65
2022-09-24T13:56:02.888Z,3.15
2022-09-24T13:58:38.927Z,2.30
2022-09-24T14:01:25.994Z,2.20
2022-09-24T14:03:58.841Z,3.72
2022-09-24T14:06:54.804Z,3.15
2022-09-24T14:09:36.685Z,3.78
2022-09-24T14:12:16.444Z,2.22
2022-09-24T14:14:50.059Z,2.28
2022-09-24T14:17:16.930Z,3.28
2022-09-24T14:19:44.004Z,3.80
2022-09-24T14:22:22.938Z,3.33
2022-09-24T14:24:56.762Z,3.63
2022-09-24T14:27:26.725Z,3.23
2022-09-24T14:30:22.765Z,5.53
2022-09-24T14:33:16.180Z,3.38
2022-09-24T14:35:49.368Z,2.72
2022-09-24T14:38:29.946Z,2.63
2022-09-24T14:41:01.599Z,2.65
2022-09-24T14:43:48.809Z,1.95
2022-09-24T14:46:23.344Z,6.10
2022-09-24T14:48:52.194Z,2.20
2022-09-24T14:51:31.340Z,1.60
2022-09-24T14:54:28.458Z,3.70
2022-09-24T14:56:55.699Z,2.58
2022-09-24T14:59:38.135Z,3.88
2022-09-24T15:02:21.550Z,3.25
2022-09-24T15:05:00.684Z,3.45
2022-09-24T15:07:32.488Z,3.80
2022-09-24T15:10:02.861Z,2.60
2022-09-24T15:12:40.034Z,3.70
2022-09-24T15:15:32.118Z,3.92
2022-09-24T15:17:59.003Z,1.95
2022-09-24T15:20:25.863Z,2.78
2022-09-24T15:22:52.678Z,3.33
2022-09-24T15:25:19.846Z,2.60
2022-09-24T15:27:46.861Z,2.60
2022-09-24T15:30:20.203Z,3.22
2022-09-24T15:32:49.965Z,4.13
2022-09-24T15:35:22.721Z,4.20
2022-09-24T15:37:49.872Z,3.35
2022-09-24T15:40:24.798Z,7.25
2022-09-24T15:42:52.330Z,4.50
2022-09-24T15:45:23.093Z,3.35
2022-09-24T15:47:51.747Z,5.70
2022-09-24T15:50:21.625Z,4.57
2022-09-24T15:52:54.500Z,4.18
2022-09-24T15:55:23.966Z,3.70
2022-09-24T15:57:51.258Z,7.28
2022-09-24T16:00:22.563Z,5.32
2022-09-24T16:02:55.100Z,5.25
2022-09-24T16:05:23.643Z,2.70
2022-09-24T16:07:50.474Z,8.27
2022-09-24T16:10:17.528Z,9.82
2022-09-24T16:12:44.491Z,5.53
2022-09-24T16:15:16.220Z,6.60
2022-09-24T16:17:43.582Z,6.03
2022-09-24T16:20:10.584Z,10.35
2022-09-24T16:22:37.864Z,5.43
2022-09-24T16:25:05.424Z,5.40
2022-09-24T16:27:34.411Z,6.65
2022-09-24T16:30:02.612Z,4.53
2022-09-24T16:32:29.438Z,7.30
2022-09-24T16:34:57.067Z,6.07
2022-09-24T16:37:25.044Z,5.80
2022-09-24T16:39:52.638Z,6.85
2022-09-24T16:42:19.908Z,4.95
2022-09-24T16:44:46.887Z,4.10
2022-09-24T16:47:18.865Z,5.40
2022-09-24T16:49:46.116Z,4.97
2022-09-24T16:52:13.907Z,7.15
2022-09-24T16:54:40.768Z,3.72
2022-09-24T16:57:08.362Z,5.40
2022-09-24T16:59:35.355Z,4.18
2022-09-24T17:02:03.044Z,4.45
2022-09-24T17:04:29.989Z,5.55
2022-09-24T17:06:58.316Z,6.03
2022-09-24T17:09:43.747Z,9.93
2022-09-24T17:12:11.021Z,5.82
2022-09-24T17:14:38.895Z,6.55
2022-09-24T17:17:06.681Z,7.20
2022-09-24T17:19:33.506Z,8.13
2022-09-24T17:22:00.525Z,7.72
2022-09-24T17:24:27.650Z,8.05
2022-09-24T17:26:57.704Z,7.45
2022-09-24T17:29:30.343Z,9.82
2022-09-24T17:31:58.280Z,8.80
2022-09-24T17:34:25.400Z,8.70
2022-09-24T17:36:52.298Z,9.48
2022-09-24T17:39:19.205Z,9.80
2022-09-24T17:41:46.090Z,9.93
2022-09-24T17:44:13.258Z,13.68
2022-09-24T17:46:40.485Z,9.93
2022-09-24T17:49:07.566Z,10.30
2022-09-24T17:51:36.738Z,12.63
2022-09-24T17:54:09.003Z,14.65
2022-09-24T17:56:38.944Z,14.43
2022-09-24T17:59:09.020Z,12.75
2022-09-24T18:01:38.420Z,21.42
2022-09-24T18:04:09.893Z,20.38
2022-09-24T18:06:40.264Z,21.38
2022-09-24T18:09:09.618Z,13.55
2022-09-24T18:11:45.643Z,14.35
2022-09-24T18:14:16.891Z,15.10
2022-09-24T18:16:45.395Z,14.63
2022-09-24T18:19:15.824Z,19.27
2022-09-24T18:21:43.389Z,19.65
2022-09-24T18:24:10.704Z,20.80
2022-09-24T18:26:39.792Z,16.77
2022-09-24T18:29:14.219Z,14.00
2022-09-24T18:31:42.126Z,13.48
2022-09-24T18:34:13.109Z,14.30
2022-09-24T18:36:42.963Z,11.57
2022-09-24T18:39:14.759Z,15.20
2022-09-24T18:41:44.277Z,10.02
2022-09-24T18:44:11.514Z,14.52
2022-09-24T18:46:39.064Z,11.95
2022-09-24T18:49:06.481Z,13.70
2022-09-24T18:51:37.593Z,14.30
2022-09-24T18:54:12.293Z,14.95
2022-09-24T18:56:39.694Z,13.00
2022-09-24T18:59:15.344Z,13.75
2022-09-24T19:01:43.325Z,11.25
2022-09-24T19:04:13.284Z,10.70
2022-09-24T19:06:44.099Z,12.88
2022-09-24T19:09:13.962Z,15.82
2022-09-24T19:11:41.930Z,14.18
2022-09-24T19:14:11.356Z,11.48
2022-09-24T19:16:38.733Z,13.30
2022-09-24T19:19:05.631Z,11.93
2022-09-24T19:21:32.772Z,9.00
2022-09-24T19:24:00.123Z,10.90
2022-09-24T19:26:31.183Z,10.73
2022-09-24T19:28:58.476Z,11.52
2022-09-24T19:31:45.645Z,14.35
2022-09-24T19:34:14.132Z,19.75
2022-09-24T19:36:43.827Z,10.23
2022-09-24T19:39:14.892Z,11.23
2022-09-24T19:41:42.783Z,11.15
2022-09-24T19:44:10.884Z,12.70
2022-09-24T19:46:38.787Z,15.73
2022-09-24T19:49:06.340Z,14.85
2022-09-24T19:51:35.101Z,19.83
2022-09-24T19:54:06.683Z,22.25
2022-09-24T19:56:34.700Z,20.02
2022-09-24T19:59:02.191Z,20.63
2022-09-24T20:01:33.124Z,22.42
2022-09-24T20:04:05.590Z,21.13
2022-09-24T20:06:35.554Z,22.65
2022-09-24T20:09:02.931Z,21.10
2022-09-24T20:11:32.497Z,20.30
2022-09-24T20:14:01.143Z,21.58
2022-09-24T20:16:33.077Z,27.50
2022-09-24T20:19:02.222Z,22.60
2022-09-24T20:21:34.796Z,17.00
2022-09-24T20:24:03.632Z,16.05
2022-09-24T20:26:49.778Z,17.42
2022-09-24T20:29:19.602Z,17.23
2022-09-24T20:31:52.901Z,16.45
2022-09-24T20:34:23.315Z,15.88
2022-09-24T20:36:50.878Z,13.88
2022-09-24T20:39:18.639Z,14.75
2022-09-24T20:41:45.622Z,15.55
2022-09-24T20:44:12.763Z,15.93
2022-09-24T20:46:39.683Z,15.70
2022-09-24T20:49:06.580Z,10.07
2022-09-24T20:51:33.680Z,11.23
2022-09-24T20:54:01.612Z,9.88
2022-09-24T20:56:30.658Z,12.95
2022-09-24T20:58:58.533Z,10.98
2022-09-24T21:01:25.747Z,11.75
2022-09-24T21:03:53.170Z,14.25
2022-09-24T21:06:22.857Z,11.50
2022-09-24T21:08:50.876Z,11.45
2022-09-24T21:11:27.490Z,10.65
2022-09-24T21:14:01.084Z,9.20
2022-09-24T21:16:32.381Z,12.50
2022-09-24T21:19:00.625Z,10.35
2022-09-24T21:21:38.365Z,12.10
2022-09-24T21:24:10.687Z,9.63
2022-09-24T21:26:39.701Z,8.68
2022-09-24T21:29:11.686Z,9.27
2022-09-24T21:31:41.950Z,9.20
2022-09-24T21:34:08.910Z,9.35
2022-09-24T21:36:43.886Z,8.80
2022-09-24T21:39:23.503Z,11.68
2022-09-24T21:41:52.991Z,11.13
2022-09-24T21:44:21.440Z,10.07
2022-09-24T21:46:50.807Z,9.82
2022-09-24T21:49:19.339Z,11.85
2022-09-24T21:51:47.375Z,10.60
2022-09-24T21:54:17.872Z,11.07
2022-09-24T21:56:46.257Z,9.43
2022-09-24T21:59:32.809Z,16.27
2022-09-24T22:02:00.201Z,13.07
2022-09-24T22:04:27.811Z,15.05
2022-09-24T22:06:55.063Z,12.77
2022-09-24T22:09:22.294Z,9.93
2022-09-24T22:11:49.334Z,10.10
2022-09-24T22:14:16.693Z,11.52
2022-09-24T22:16:43.696Z,12.70
2022-09-24T22:19:10.601Z,10.10
2022-09-24T22:21:37.568Z,10.82
2022-09-24T22:24:05.365Z,15.55
2022-09-24T22:26:32.573Z,15.18
2022-09-24T22:29:00.230Z,11.65
2022-09-24T22:31:27.880Z,13.73
2022-09-24T22:34:13.433Z,12.80
2022-09-24T22:36:40.543Z,11.85
2022-09-24T22:39:08.378Z,11.10
2022-09-24T22:41:39.774Z,10.73
2022-09-24T22:44:07.571Z,12.52
2022-09-24T22:46:36.203Z,11.10
2022-09-24T22:49:05.589Z,10.38
2022-09-24T22:51:33.629Z,14.65
2022-09-24T22:54:00.900Z,14.90
2022-09-24T22:56:28.563Z,13.07
2022-09-24T22:59:00.857Z,11.80
2022-09-24T23:01:35.018Z,13.45
2022-09-24T23:04:02.658Z,12.50
2022-09-24T23:06:31.434Z,12.40
2022-09-24T23:08:58.312Z,11.02
2022-09-24T23:11:29.913Z,10.50
2022-09-24T23:14:12.485Z,10.45
2022-09-24T23:16:42.639Z,10.93
2022-09-24T23:19:19.690Z,13.75
2022-09-24T23:21:46.830Z,9.98
2022-09-24T23:24:18.274Z,10.38
2022-09-24T23:26:46.368Z,10.65
2022-09-24T23:29:15.154Z,11.23
2022-09-24T23:31:42.181Z,12.95
2022-09-24T23:34:12.423Z,12.80
2022-09-24T23:36:39.693Z,13.02
2022-09-24T23:39:06.650Z,14.98
2022-09-24T23:41:33.611Z,14.38
2022-09-24T23:44:00.761Z,14.95
2022-09-24T23:46:28.077Z,16.42
2022-09-24T23:48:55.689Z,15.90
2022-09-24T23:51:22.593Z,15.85
2022-09-24T23:53:49.493Z,13.35
2022-09-24T23:56:16.500Z,10.70
2022-09-24T23:58:43.629Z,11.75
